Portada
METAR-TAF:

METAR-TAF

Aeroports :

Aeroport Internacional de Bahrain

Bahrain, Bahrain

latitud: 26-16N, longitud: 050-39E, altitud: 2 m

Observació

L'informe es va fer fa 38 minuts, a les 10:30 UTC
Vent 20 kt del Nord/Nord-Oest
Temperatura 39°C
Humitat 43%
Pressió 994 hPa
Visibilitat 10 km o més
sense núvols per sota de 1500 mi sense presència de cumulonimbus.

METAR: OBBI 291030Z 33020KT CAVOK 39/24 Q0994 NOSIG

Hora: 14:08 (11:08 UTC)

Pronòstic

L'informe es va fer fa 6 hores i 8 minuts, a les 05:00 UTC
Pronòstic vàlid del 29 a les 06 UTC al 30 a les 12 UTC
Vent 17 kt del Nord/Nord-Oest amb ràfegues de 27 kt
Visibilitat 10 km o més
sense núvols per sota de 1500 mi sense presència de cumulonimbus.
Evolucionant progressivament
l' 29 a les 15 UTC al 29 a les 17 UTC
Vent 8 kt del Nord/Nord-Oest

TAF: OBBI 290500Z 2906/3012 33017G27KT CAVOK BECMG 2915/2917 34008KT

Observacions i pronòstics meteorològics de més de 4000 aeroports (METAR i TAF).

Les estacions disponibles són els punts grocs i vermells al mapa.

Posi el ratolí al punt desitjat per veure el nom de l'estació.

Feu clic per veure les observacions i els pronòstics meteorològics.

Per canviar el mapa: feu clic els botons verds amb una creu de color negre per apropar; al botó verd amb un guió per allunyar la imatge; o en les fletxes verdes per a mapes adjacents.


METAR-TAF: